Time;durP1;ratioP1;P1;durP2;ratioP2;P2;SDS_P1;SDS_P2;PMS_P1;PMS_P2;Temp;Humidity;BMP_temperature;BMP_pressure;BME280_temperature;BME280_humidity;BME280_pressure;Samples;Min_cycle;Max_cycle;Signal;HPM_P1;HPM_P2
2022/04/09 00:00:41;;;;;;;16.25;3.50;;;;;;;3.53;82.47;100383.22;5069893;28;20044;-69
2022/04/09 00:03:06;;;;;;;16.10;3.80;;;;;;;3.51;82.82;100388.50;5070025;28;20029;-68
2022/04/09 00:05:32;;;;;;;15.52;3.72;;;;;;;3.50;82.88;100392.03;5070954;28;20043;-69
2022/04/09 00:07:57;;;;;;;16.45;3.72;;;;;;;3.48;82.73;100393.88;5070038;28;20388;-68
2022/04/09 00:10:22;;;;;;;21.92;3.88;;;;;;;3.46;83.29;100398.31;5070766;28;20103;-69
2022/04/09 00:12:52;;;;;;;19.52;3.95;;;;;;;3.46;82.99;100404.34;5070044;28;20482;-69
2022/04/09 00:15:17;;;;;;;18.15;4.07;;;;;;;3.44;82.87;100403.59;5070452;28;20020;-71
2022/04/09 00:17:45;;;;;;;23.90;4.07;;;;;;;3.44;82.97;100415.75;5070043;28;20099;-68
2022/04/09 00:20:13;;;;;;;24.90;4.75;;;;;;;3.40;83.57;100422.88;5067788;28;20025;-69
2022/04/09 00:22:40;;;;;;;15.90;3.90;;;;;;;3.39;83.28;100421.19;5067435;28;20466;-69
2022/04/09 00:25:07;;;;;;;18.95;4.03;;;;;;;3.37;83.61;100427.38;5085339;28;20028;-71
2022/04/09 00:27:33;;;;;;;23.13;4.15;;;;;;;3.37;83.21;100428.22;5069540;28;20021;-69
2022/04/09 00:29:58;;;;;;;15.02;4.03;;;;;;;3.35;83.32;100429.22;5070007;28;20031;-69
2022/04/09 00:32:24;;;;;;;19.25;4.72;;;;;;;3.34;83.40;100431.00;5069816;28;20116;-71
2022/04/09 00:34:49;;;;;;;23.35;4.50;;;;;;;3.35;83.73;100444.81;5069234;28;20028;-73
2022/04/09 00:37:14;;;;;;;21.60;4.07;;;;;;;3.35;82.78;100437.88;5069918;28;20024;-71
2022/04/09 00:39:40;;;;;;;19.00;4.43;;;;;;;3.34;83.64;100446.59;5070242;28;20028;-71
2022/04/09 00:42:11;;;;;;;21.70;4.30;;;;;;;3.34;83.62;100449.19;5069466;28;20017;-71
2022/04/09 00:44:36;;;;;;;19.52;4.10;;;;;;;3.34;83.29;100454.38;5069577;28;20067;-71
2022/04/09 00:47:03;;;;;;;18.40;4.47;;;;;;;3.33;83.43;100457.06;5070119;28;20048;-74
2022/04/09 00:49:30;;;;;;;18.35;3.90;;;;;;;3.31;83.43;100454.53;5069866;28;20059;-71
2022/04/09 00:51:58;;;;;;;19.27;3.78;;;;;;;3.32;83.54;100468.38;5068587;28;20342;-71
2022/04/09 00:54:25;;;;;;;22.05;3.70;;;;;;;3.30;83.43;100465.84;5051082;28;20025;-71
2022/04/09 00:56:51;;;;;;;18.25;4.03;;;;;;;3.32;83.50;100476.19;5066110;28;20055;-71
2022/04/09 00:59:21;;;;;;;21.60;4.30;;;;;;;3.31;83.19;100470.13;5068710;28;20049;-68
2022/04/09 01:01:48;;;;;;;20.30;4.45;;;;;;;3.30;83.51;100480.63;5069802;28;20313;-69
2022/04/09 01:04:13;;;;;;;20.77;4.05;;;;;;;3.31;83.89;100479.69;5067965;28;20182;-69
2022/04/09 01:06:39;;;;;;;17.90;4.60;;;;;;;3.30;83.75;100491.03;5069856;28;20465;-68
2022/04/09 01:09:06;;;;;;;18.25;3.90;;;;;;;3.27;83.75;100497.22;5055507;28;20032;-69
2022/04/09 01:11:33;;;;;;;21.90;3.97;;;;;;;3.24;83.20;100506.94;5067233;28;20025;-69
2022/04/09 01:13:59;;;;;;;15.60;3.67;;;;;;;3.25;83.63;100506.00;5069344;28;20060;-68
2022/04/09 01:16:28;;;;;;;19.08;3.55;;;;;;;3.21;83.21;100514.88;5068470;28;20578;-69
2022/04/09 01:18:55;;;;;;;20.80;4.00;;;;;;;3.19;83.40;100512.31;5068726;28;20024;-69
2022/04/09 01:21:23;;;;;;;17.60;4.00;;;;;;;3.14;83.12;100520.34;5069230;28;20033;-69
2022/04/09 01:23:49;;;;;;;22.60;4.00;;;;;;;3.08;83.31;100525.84;5068568;28;20085;-73
2022/04/09 01:26:15;;;;;;;20.52;3.75;;;;;;;3.06;83.52;100529.44;5069794;28;20487;-71
2022/04/09 01:28:40;;;;;;;14.95;3.60;;;;;;;3.04;83.81;100537.31;5069310;28;20032;-71
2022/04/09 01:31:12;;;;;;;17.85;3.40;;;;;;;3.01;84.07;100542.66;5067534;28;20017;-69
2022/04/09 01:33:38;;;;;;;22.88;4.07;;;;;;;2.99;83.58;100547.09;5069206;28;20028;-69
2022/04/09 01:36:04;;;;;;;17.48;3.65;;;;;;;2.93;84.16;100542.19;5064852;28;20135;-69
2022/04/09 01:38:29;;;;;;;20.00;3.50;;;;;;;2.92;84.28;100543.09;5068375;28;20036;-71
2022/04/09 01:40:54;;;;;;;21.48;4.07;;;;;;;2.91;84.18;100554.41;5069414;28;20044;-71
2022/04/09 01:43:21;;;;;;;23.90;4.00;;;;;;;2.89;84.69;100558.84;5100877;28;20048;-71
2022/04/09 01:45:46;;;;;;;16.75;3.53;;;;;;;2.91;84.55;100567.41;5062237;28;20025;-69
2022/04/09 01:48:12;;;;;;;25.00;3.72;;;;;;;2.89;84.92;100565.78;5068446;28;20039;-68
2022/04/09 01:50:38;;;;;;;21.27;3.60;;;;;;;2.88;84.54;100575.34;5068935;28;20074;-68
2022/04/09 01:53:03;;;;;;;16.95;3.20;;;;;;;2.88;84.38;100580.53;5067600;28;20029;-71
2022/04/09 01:55:28;;;;;;;19.88;3.80;;;;;;;2.86;84.52;100577.16;5067358;28;20043;-68
2022/04/09 01:57:54;;;;;;;17.58;3.30;;;;;;;2.87;84.02;100580.59;5068608;28;20145;-69
2022/04/09 02:00:22;;;;;;;15.73;3.42;;;;;;;2.86;85.02;100584.13;5066329;28;20048;-68
2022/04/09 02:02:47;;;;;;;20.40;3.70;;;;;;;2.85;84.31;100583.28;5062971;28;20040;-68
2022/04/09 02:05:14;;;;;;;19.48;3.75;;;;;;;2.83;84.97;100588.53;5060750;28;20299;-68
2022/04/09 02:07:41;;;;;;;21.00;3.58;;;;;;;2.81;85.36;100590.38;5067184;28;20031;-69
2022/04/09 02:10:08;;;;;;;15.65;3.47;;;;;;;2.83;84.82;100603.28;5068840;28;20037;-69
2022/04/09 02:12:35;;;;;;;20.80;3.92;;;;;;;2.84;85.17;100610.16;5069424;28;20369;-68
2022/04/09 02:15:07;;;;;;;17.73;3.05;;;;;;;2.82;85.78;100606.81;5061459;28;20033;-69
2022/04/09 02:17:33;;;;;;;22.73;3.70;;;;;;;2.81;85.83;100605.13;5069238;28;20047;-69
2022/04/09 02:19:58;;;;;;;16.33;3.90;;;;;;;2.78;85.95;100610.41;5068495;28;20059;-68
2022/04/09 02:22:23;;;;;;;15.75;3.03;;;;;;;2.80;84.83;100619.88;5068471;28;20552;-71
2022/04/09 02:24:58;;;;;;;17.02;3.47;;;;;;;2.78;85.29;100621.66;5068760;28;20063;-69
2022/04/09 02:27:23;;;;;;;15.10;2.95;;;;;;;2.80;85.40;100629.38;5060806;28;20617;-69
2022/04/09 02:29:49;;;;;;;17.20;3.40;;;;;;;2.77;85.43;100629.53;5068363;28;20021;-71
2022/04/09 02:32:14;;;;;;;21.13;3.65;;;;;;;2.78;85.22;100626.00;5067369;28;20044;-71
2022/04/09 02:34:40;;;;;;;18.70;3.40;;;;;;;2.75;84.86;100632.19;5065437;28;20037;-71
2022/04/09 02:37:05;;;;;;;19.48;3.85;;;;;;;2.73;85.24;100626.22;5063748;28;20024;-71
2022/04/09 02:39:31;;;;;;;15.25;3.30;;;;;;;2.74;85.18;100635.69;5059341;28;20421;-71
2022/04/09 02:41:56;;;;;;;17.38;3.45;;;;;;;2.73;84.53;100646.16;5066296;28;20093;-72
2022/04/09 02:44:23;;;;;;;24.63;3.75;;;;;;;2.74;85.16;100647.84;5068593;28;20135;-71
2022/04/09 02:46:48;;;;;;;15.68;3.08;;;;;;;2.75;84.67;100657.31;5068084;28;20081;-71
2022/04/09 02:49:14;;;;;;;21.88;3.60;;;;;;;2.75;85.33;100657.31;5065321;28;20119;-73
2022/04/09 02:51:39;;;;;;;14.60;3.08;;;;;;;2.77;84.87;100658.94;5065215;28;20029;-74
2022/04/09 02:54:08;;;;;;;19.00;3.42;;;;;;;2.81;85.19;100663.13;5067692;28;20028;-71
2022/04/09 02:56:34;;;;;;;17.23;2.95;;;;;;;2.83;84.69;100671.69;5067578;28;20055;-69
2022/04/09 02:58:59;;;;;;;12.48;2.70;;;;;;;2.87;84.06;100681.94;5067412;28;20076;-69
2022/04/09 03:01:27;;;;;;;17.27;3.10;;;;;;;2.87;84.63;100682.78;5065461;28;20020;-69
2022/04/09 03:03:54;;;;;;;14.55;3.15;;;;;;;2.86;84.16;100688.88;5063395;28;20399;-69
2022/04/09 03:06:19;;;;;;;14.98;3.20;;;;;;;2.84;83.88;100688.09;5068223;28;20028;-68
2022/04/09 03:08:45;;;;;;;17.20;2.75;;;;;;;2.88;83.75;100694.00;5071638;28;20388;-69
2022/04/09 03:11:10;;;;;;;16.40;3.33;;;;;;;2.86;83.44;100694.09;5070729;28;20098;-69
2022/04/09 03:13:38;;;;;;;18.23;3.83;;;;;;;2.87;82.96;100698.38;5065775;28;20154;-69
2022/04/09 03:16:04;;;;;;;13.50;3.03;;;;;;;2.84;83.58;100701.09;5064235;28;20365;-69
2022/04/09 03:18:29;;;;;;;14.07;2.70;;;;;;;2.83;83.42;100696.81;5071275;28;20023;-69
2022/04/09 03:20:54;;;;;;;20.83;3.92;;;;;;;2.80;84.10;100697.81;5070938;28;20029;-69
2022/04/09 03:23:20;;;;;;;15.90;3.15;;;;;;;2.79;83.54;100703.03;5071314;28;20024;-68
2022/04/09 03:25:45;;;;;;;16.80;2.63;;;;;;;2.76;83.48;100701.41;5060698;28;20098;-68
2022/04/09 03:28:10;;;;;;;15.27;2.72;;;;;;;2.73;83.20;100700.72;5064600;28;20020;-69
2022/04/09 03:30:39;;;;;;;12.38;2.80;;;;;;;2.72;83.95;100714.59;5070995;28;20040;-70
2022/04/09 03:33:05;;;;;;;18.60;3.10;;;;;;;2.70;83.77;100726.81;5071644;28;20028;-71
2022/04/09 03:35:30;;;;;;;14.60;2.50;;;;;;;2.67;84.33;100722.59;5062842;28;20025;-69
2022/04/09 03:37:56;;;;;;;15.13;2.72;;;;;;;2.68;83.39;100728.63;5065712;28;20474;-69
2022/04/09 03:40:21;;;;;;;15.18;3.40;;;;;;;2.64;83.59;100727.94;5071911;28;20381;-69
2022/04/09 03:42:47;;;;;;;14.15;2.70;;;;;;;2.61;83.95;100727.22;5071907;28;20032;-70
2022/04/09 03:45:17;;;;;;;16.52;3.10;;;;;;;2.59;84.16;100739.44;5071139;28;20026;-69
2022/04/09 03:47:42;;;;;;;16.92;2.90;;;;;;;2.55;84.34;100732.69;5068945;28;20024;-69
2022/04/09 03:50:09;;;;;;;16.00;3.25;;;;;;;2.49;84.01;100739.81;5066051;28;20479;-71
2022/04/09 03:52:35;;;;;;;18.60;3.20;;;;;;;2.49;84.47;100733.78;5070424;28;20028;-69
2022/04/09 03:55:01;;;;;;;14.68;3.42;;;;;;;2.49;84.74;100738.97;5070849;28;20024;-69
2022/04/09 03:57:26;;;;;;;15.82;3.83;;;;;;;2.45;84.27;100751.25;5070741;28;20030;-70
2022/04/09 03:59:55;;;;;;;17.15;3.63;;;;;;;2.44;84.83;100748.72;5067868;28;20044;-69
2022/04/09 04:02:23;;;;;;;16.88;3.78;;;;;;;2.42;84.90;100753.97;5068405;28;20549;-69
2022/04/09 04:04:48;;;;;;;17.45;3.50;;;;;;;2.41;84.61;100761.84;5065740;28;20075;-69
2022/04/09 04:07:14;;;;;;;13.73;3.30;;;;;;;2.40;84.31;100760.13;5070046;28;20369;-69
2022/04/09 04:09:39;;;;;;;13.02;2.80;;;;;;;2.39;84.89;100769.66;5070844;28;20013;-69
2022/04/09 04:12:06;;;;;;;20.65;3.65;;;;;;;2.38;84.76;100773.16;5067406;28;20093;-69
2022/04/09 04:14:32;;;;;;;14.82;3.38;;;;;;;2.37;85.37;100768.88;5066694;28;20095;-69
2022/04/09 04:16:58;;;;;;;13.05;3.25;;;;;;;2.33;84.80;100774.25;5071179;28;20027;-69
2022/04/09 04:19:23;;;;;;;16.75;3.33;;;;;;;2.36;84.39;100779.31;5069665;28;20501;-69
2022/04/09 04:21:49;;;;;;;15.00;3.10;;;;;;;2.33;84.30;100785.50;5070195;28;20020;-69
2022/04/09 04:24:14;;;;;;;13.10;3.45;;;;;;;2.33;85.08;100790.69;5065709;28;20024;-69
2022/04/09 04:26:43;;;;;;;15.57;3.10;;;;;;;2.31;84.92;100795.09;5064033;28;20017;-69
2022/04/09 04:29:09;;;;;;;11.93;3.22;;;;;;;2.29;85.26;100794.31;5071039;28;20086;-69
2022/04/09 04:31:35;;;;;;;17.40;3.55;;;;;;;2.30;85.13;100801.19;5070702;28;20016;-69
2022/04/09 04:34:04;;;;;;;14.70;2.97;;;;;;;2.26;85.29;100797.03;5069234;28;20139;-69
2022/04/09 04:36:29;;;;;;;19.58;3.25;;;;;;;2.29;85.58;100809.03;5067412;28;20031;-70
2022/04/09 04:38:54;;;;;;;16.17;3.35;;;;;;;2.26;85.92;100804.81;5069045;28;20032;-69
2022/04/09 04:41:20;;;;;;;13.85;3.17;;;;;;;2.26;86.13;100804.81;5069270;28;20452;-69
2022/04/09 04:43:49;;;;;;;16.10;3.40;;;;;;;2.27;85.51;100801.31;5063004;28;20069;-69
2022/04/09 04:46:16;;;;;;;17.35;3.67;;;;;;;2.26;86.26;100809.16;5068237;28;20035;-70
2022/04/09 04:48:41;;;;;;;18.10;3.70;;;;;;;2.25;86.31;100823.91;5064171;28;20033;-69
2022/04/09 04:51:06;;;;;;;13.85;3.35;;;;;;;2.27;86.05;100823.84;5069486;28;20031;-69
2022/04/09 04:53:32;;;;;;;20.38;3.35;;;;;;;2.26;86.76;100825.59;5070125;28;20021;-68
2022/04/09 04:55:57;;;;;;;16.45;3.30;;;;;;;2.25;86.38;100834.28;5068654;28;20437;-69
2022/04/09 04:58:23;;;;;;;19.35;3.78;;;;;;;2.23;86.60;100833.50;5066998;28;20483;-68
2022/04/09 05:00:48;;;;;;;17.05;3.45;;;;;;;2.24;86.16;100832.59;5066281;28;20041;-68
2022/04/09 05:03:15;;;;;;;16.98;3.45;;;;;;;2.24;86.60;100842.97;5069568;28;20024;-69
2022/04/09 05:05:40;;;;;;;18.08;3.42;;;;;;;2.25;86.33;100847.25;5069542;28;20511;-68
2022/04/09 05:08:06;;;;;;;14.32;2.92;;;;;;;2.26;86.34;100848.94;5070137;28;20153;-68
2022/04/09 05:10:31;;;;;;;14.45;3.60;;;;;;;2.26;86.34;100851.56;5066308;28;20008;-69
2022/04/09 05:12:58;;;;;;;17.38;3.35;;;;;;;2.26;85.60;100856.75;5070480;28;20035;-69
2022/04/09 05:15:23;;;;;;;17.33;3.25;;;;;;;2.27;85.93;100868.81;5069802;28;20174;-68
2022/04/09 05:17:48;;;;;;;13.00;3.15;;;;;;;2.27;86.32;100868.81;5069736;28;20103;-69
2022/04/09 05:20:16;;;;;;;14.57;3.35;;;;;;;2.27;85.68;100879.19;5059802;28;20615;-69
2022/04/09 05:22:46;;;;;;;18.88;3.80;;;;;;;2.27;85.64;100880.94;5063447;28;20040;-68
2022/04/09 05:25:18;;;;;;;17.60;4.03;;;;;;;2.28;86.05;100880.88;5065715;28;20139;-69
2022/04/09 05:27:44;;;;;;;16.52;3.60;;;;;;;2.29;86.05;100887.75;5069374;28;20032;-69
2022/04/09 05:30:10;;;;;;;20.90;3.50;;;;;;;2.31;86.69;100885.94;5068345;28;20021;-71
2022/04/09 05:32:36;;;;;;;19.67;3.58;;;;;;;2.34;86.85;100897.97;5066089;28;20021;-71
2022/04/09 05:35:06;;;;;;;23.73;4.13;;;;;;;2.35;87.25;100897.91;5063436;28;20541;-69
2022/04/09 05:37:31;;;;;;;24.40;4.40;;;;;;;2.38;87.22;100902.97;5068991;28;20056;-69
2022/04/09 05:40:05;;;;;;;19.70;3.90;;;;;;;2.40;87.18;100911.59;5067839;28;20044;-69
2022/04/09 05:42:31;;;;;;;17.48;3.63;;;;;;;2.43;87.29;100911.47;5069182;28;20024;-69
2022/04/09 05:44:56;;;;;;;15.73;3.50;;;;;;;2.48;87.50;100914.72;5063553;28;20025;-69
2022/04/09 05:47:21;;;;;;;21.52;4.80;;;;;;;2.51;86.95;100924.97;5068906;28;20028;-70
2022/04/09 05:49:50;;;;;;;20.08;3.70;;;;;;;2.55;87.85;100924.84;5068243;28;20456;-70
2022/04/09 05:52:16;;;;;;;24.33;4.40;;;;;;;2.61;87.28;100929.81;5067030;28;20039;-70
2022/04/09 05:54:41;;;;;;;19.98;3.53;;;;;;;2.66;87.07;100935.66;5068916;28;20484;-69
2022/04/09 05:57:06;;;;;;;25.02;3.50;;;;;;;2.72;87.08;100943.19;5063597;28;20039;-69
2022/04/09 05:59:32;;;;;;;21.45;4.28;;;;;;;2.76;87.24;100935.22;5067500;28;20088;-69
2022/04/09 06:01:59;;;;;;;17.20;3.60;;;;;;;2.83;87.07;100943.63;5068600;28;20024;-70
2022/04/09 06:04:25;;;;;;;21.90;4.13;;;;;;;2.87;86.97;100947.81;5069444;28;20017;-70
2022/04/09 06:06:50;;;;;;;26.50;4.05;;;;;;;2.93;86.92;100947.53;5067856;28;20538;-70
2022/04/09 06:09:16;;;;;;;16.20;4.20;;;;;;;2.98;87.22;100953.41;5063960;28;20016;-69
2022/04/09 06:11:44;;;;;;;16.45;4.00;;;;;;;3.05;86.70;100954.84;5065859;28;20028;-70
2022/04/09 06:14:10;;;;;;;21.50;4.40;;;;;;;3.10;86.26;100965.03;5067552;28;20025;-69
2022/04/09 06:16:38;;;;;;;20.42;3.75;;;;;;;3.18;86.54;100972.50;5068826;28;20381;-70
2022/04/09 06:19:04;;;;;;;15.90;3.67;;;;;;;3.22;86.82;100963.72;5066661;28;20032;-69
2022/04/09 06:21:30;;;;;;;16.50;4.15;;;;;;;3.28;85.85;100976.44;5061268;28;20025;-69
2022/04/09 06:24:02;;;;;;;20.75;4.38;;;;;;;3.33;86.44;100977.09;5068353;28;20850;-69
2022/04/09 06:26:28;;;;;;;19.65;3.70;;;;;;;3.39;85.95;100976.84;5068356;28;20082;-70
2022/04/09 06:28:55;;;;;;;16.55;3.70;;;;;;;3.46;85.73;100983.47;5069552;28;20388;-70
2022/04/09 06:31:21;;;;;;;16.90;3.70;;;;;;;3.52;85.76;100988.41;5062251;28;20037;-70
2022/04/09 06:33:47;;;;;;;16.35;3.85;;;;;;;3.57;86.17;100989.03;5054657;28;20017;-70
2022/04/09 06:36:12;;;;;;;14.30;3.80;;;;;;;3.70;86.51;100997.19;5068986;28;20097;-70
2022/04/09 06:38:37;;;;;;;13.82;3.63;;;;;;;3.77;85.67;101004.66;5068661;28;20024;-72
2022/04/09 06:41:03;;;;;;;17.55;3.85;;;;;;;3.87;85.04;100999.06;5068464;28;20047;-70
2022/04/09 06:43:29;;;;;;;18.08;3.60;;;;;;;3.95;84.94;101002.16;5065656;28;20027;-70
2022/04/09 06:45:55;;;;;;;19.45;3.72;;;;;;;4.04;85.81;100999.16;5072155;28;20158;-70
2022/04/09 06:48:20;;;;;;;17.55;3.22;;;;;;;4.18;85.81;101002.00;5069898;28;20447;-70
2022/04/09 06:50:45;;;;;;;21.08;3.47;;;;;;;4.31;84.70;101003.13;5072281;28;20029;-70
2022/04/09 06:53:11;;;;;;;16.98;3.30;;;;;;;4.45;84.97;100996.44;5071582;28;20028;-69
2022/04/09 06:55:36;;;;;;;14.15;3.10;;;;;;;4.57;84.76;101007.13;5065659;28;20502;-70
2022/04/09 06:58:02;;;;;;;21.15;3.65;;;;;;;4.67;84.79;101012.75;5072044;28;20107;-69
2022/04/09 07:00:28;;;;;;;11.45;3.08;;;;;;;4.74;83.20;101014.16;5071285;28;20052;-70
2022/04/09 07:02:54;;;;;;;16.33;3.55;;;;;;;4.79;82.97;101001.75;5071246;28;20044;-70
2022/04/09 07:05:19;;;;;;;15.75;3.25;;;;;;;4.82;81.93;101012.06;5065481;28;20375;-70
2022/04/09 07:07:48;;;;;;;19.27;3.40;;;;;;;4.87;82.00;101024.88;5069170;28;20020;-69
2022/04/09 07:10:16;;;;;;;17.92;3.25;;;;;;;4.91;81.90;101024.66;5072502;28;20020;-68
2022/04/09 07:12:43;;;;;;;16.05;3.05;;;;;;;4.92;81.25;101028.94;5071919;28;20779;-68
2022/04/09 07:15:09;;;;;;;13.40;3.05;;;;;;;4.95;81.18;101038.38;5071851;28;20040;-68
2022/04/09 07:17:35;;;;;;;17.52;3.38;;;;;;;4.97;81.16;101037.38;5068965;28;20025;-68
2022/04/09 07:20:05;;;;;;;16.88;3.30;;;;;;;5.01;80.57;101038.94;5065131;28;20559;-74
2022/04/09 07:22:32;;;;;;;17.83;3.20;;;;;;;5.04;80.55;101038.78;5059484;28;20025;-69
2022/04/09 07:24:58;;;;;;;13.75;3.22;;;;;;;5.08;80.75;101051.66;5051933;28;20032;-69
2022/04/09 07:27:44;;;;;;;13.90;3.03;;;;;;;5.14;80.45;101043.56;5060159;28;20025;-69
2022/04/09 07:30:15;;;;;;;15.18;3.30;;;;;;;5.19;80.10;101052.00;5070252;28;20027;-70
2022/04/09 07:32:41;;;;;;;13.40;3.10;;;;;;;5.22;80.33;101051.88;5069497;28;20036;-70
2022/04/09 07:35:08;;;;;;;15.95;3.78;;;;;;;5.27;80.28;101049.88;5071987;28;20028;-71
2022/04/09 07:37:40;;;;;;;16.08;3.30;;;;;;;5.35;79.89;101058.19;5068126;28;20044;-72
2022/04/09 07:40:07;;;;;;;17.35;3.53;;;;;;;5.44;80.55;101060.31;5057768;28;20039;-70
2022/04/09 07:42:33;;;;;;;17.52;3.45;;;;;;;5.51;80.07;101061.72;5071716;28;20028;-70
2022/04/09 07:44:58;;;;;;;20.35;3.95;;;;;;;5.63;80.05;101052.44;5071681;28;20017;-70
2022/04/09 07:47:24;;;;;;;13.88;3.30;;;;;;;5.72;78.17;101061.56;5073016;28;20107;-69
2022/04/09 07:49:49;;;;;;;15.25;3.30;;;;;;;5.82;78.59;101068.00;5072024;28;20016;-70
2022/04/09 07:52:14;;;;;;;14.90;3.80;;;;;;;5.95;78.68;101069.09;5068582;28;20033;-70
2022/04/09 07:54:40;;;;;;;18.23;3.47;;;;;;;6.05;77.86;101064.28;5073852;28;20539;-70
2022/04/09 07:57:06;;;;;;;16.60;3.83;;;;;;;6.16;77.57;101070.63;5071484;28;20039;-70
2022/04/09 07:59:31;;;;;;;17.30;3.75;;;;;;;6.27;77.00;101065.66;5071039;28;20041;-70
2022/04/09 08:01:57;;;;;;;12.27;3.03;;;;;;;6.39;76.45;101068.56;5073921;28;20535;-70
2022/04/09 08:04:22;;;;;;;13.63;2.90;;;;;;;6.50;75.92;101072.31;5072215;28;20089;-70
2022/04/09 08:06:48;;;;;;;16.83;3.50;;;;;;;6.60;74.20;101077.88;5070565;28;20036;-70
2022/04/09 08:09:13;;;;;;;14.60;3.30;;;;;;;6.72;74.94;101061.53;5071314;28;20035;-70
2022/04/09 08:11:38;;;;;;;13.45;3.33;;;;;;;6.84;75.03;101081.78;5071141;28;20426;-69
2022/04/09 08:14:04;;;;;;;14.45;3.38;;;;;;;6.98;73.73;101072.34;5070387;28;20423;-70
2022/04/09 08:16:29;;;;;;;15.02;3.47;;;;;;;7.13;74.44;101077.53;5073358;28;20017;-70
2022/04/09 08:18:55;;;;;;;12.85;3.17;;;;;;;7.26;70.57;101074.25;5070103;28;20376;-70
2022/04/09 08:21:20;;;;;;;18.25;3.47;;;;;;;7.40;71.83;101079.56;5066502;28;20032;-70
2022/04/09 08:23:47;;;;;;;15.50;3.20;;;;;;;7.55;71.40;101082.13;5070254;28;20017;-70
2022/04/09 08:26:13;;;;;;;17.65;3.40;;;;;;;7.64;68.55;101087.78;5072826;28;20040;-70
2022/04/09 08:28:38;;;;;;;12.60;2.63;;;;;;;7.73;66.53;101095.09;5069651;28;20017;-69
2022/04/09 08:31:03;;;;;;;10.50;2.40;;;;;;;7.81;65.09;101090.25;5071250;28;20047;-70
2022/04/09 08:33:29;;;;;;;12.23;2.15;;;;;;;7.85;64.83;101091.75;5075224;28;20022;-70
2022/04/09 08:35:55;;;;;;;13.10;2.88;;;;;;;7.94;65.61;101096.44;5069772;28;20161;-69
2022/04/09 08:38:20;;;;;;;12.43;2.20;;;;;;;8.05;63.51;101101.91;5069694;28;20540;-70
2022/04/09 08:40:47;;;;;;;7.90;2.13;;;;;;;8.18;64.26;101102.03;5069718;28;20020;-70
2022/04/09 08:43:13;;;;;;;14.50;2.90;;;;;;;8.29;64.34;101101.38;5062603;28;20031;-70
2022/04/09 08:45:40;;;;;;;11.93;3.15;;;;;;;8.37;64.11;101104.41;5070034;28;20031;-70
2022/04/09 08:48:07;;;;;;;15.90;3.00;;;;;;;8.51;64.95;101096.56;5068273;28;20496;-72
2022/04/09 08:50:35;;;;;;;11.20;2.53;;;;;;;8.56;63.77;101107.59;5068132;28;20048;-70
2022/04/09 08:53:07;;;;;;;8.20;2.45;;;;;;;8.59;60.58;101117.91;5069862;28;20029;-70
2022/04/09 08:55:40;;;;;;;11.20;2.55;;;;;;;8.64;58.50;101117.63;5063141;28;20056;-70
2022/04/09 08:58:06;;;;;;;9.27;2.38;;;;;;;8.71;59.88;101124.16;5062502;28;20029;-70
2022/04/09 09:00:32;;;;;;;10.55;2.10;;;;;;;8.74;60.11;101122.19;5070040;28;20610;-70
2022/04/09 09:03:01;;;;;;;5.82;1.70;;;;;;;8.78;57.06;101136.81;5069106;28;20478;-72
2022/04/09 09:05:32;;;;;;;8.07;1.80;;;;;;;8.78;57.91;101128.94;5069305;28;20686;-70
2022/04/09 09:08:01;;;;;;;8.60;1.95;;;;;;;8.79;56.79;101140.28;5070271;28;20032;-70
2022/04/09 09:10:27;;;;;;;6.25;1.60;;;;;;;8.85;56.20;101137.28;5070321;28;20016;-70
2022/04/09 09:13:05;;;;;;;7.78;1.90;;;;;;;8.95;57.76;101140.19;5067974;28;20566;-70
2022/04/09 09:15:52;;;;;;;8.30;1.88;;;;;;;8.96;55.23;101144.50;5068966;28;20483;-70
2022/04/09 09:18:21;;;;;;;6.22;1.90;;;;;;;9.02;55.74;101138.84;5069966;28;20074;-70
2022/04/09 09:20:57;;;;;;;6.47;1.65;;;;;;;9.12;55.83;101132.06;5068925;28;20028;-69
2022/04/09 09:23:24;;;;;;;5.63;1.77;;;;;;;9.11;52.60;101157.47;5068695;28;20012;-70
2022/04/09 09:25:52;;;;;;;5.15;1.60;;;;;;;9.25;55.52;101140.03;5069006;28;20396;-70
2022/04/09 09:28:31;;;;;;;7.55;1.85;;;;;;;9.33;54.97;101143.84;5068050;28;20086;-70
2022/04/09 09:31:04;;;;;;;7.03;1.63;;;;;;;9.34;53.38;101148.16;5059036;28;20024;-70
2022/04/09 09:33:31;;;;;;;4.50;1.63;;;;;;;9.34;53.56;101163.91;5062937;28;20024;-70
2022/04/09 09:36:01;;;;;;;5.65;1.50;;;;;;;9.30;52.79;101157.19;5032764;28;20124;-70
2022/04/09 09:38:28;;;;;;;5.60;1.50;;;;;;;9.30;53.36;101162.44;5054988;28;20025;-70
2022/04/09 09:40:56;;;;;;;7.10;1.83;;;;;;;9.26;53.99;101160.94;5057061;28;20068;-72
2022/04/09 09:43:23;;;;;;;5.97;1.52;;;;;;;9.24;54.53;101160.19;5053140;28;20085;-70
2022/04/09 09:45:49;;;;;;;4.57;1.48;;;;;;;9.25;53.58;101163.66;5056605;28;20051;-70
2022/04/09 09:48:19;;;;;;;5.57;1.65;;;;;;;9.19;51.97;101162.25;5055718;28;20028;-70
2022/04/09 09:50:45;;;;;;;9.15;1.70;;;;;;;9.23;52.79;101158.50;5068739;28;20468;-69
2022/04/09 09:53:11;;;;;;;6.60;1.55;;;;;;;9.24;53.92;101167.25;5070036;28;20024;-70
2022/04/09 09:55:43;;;;;;;8.43;1.70;;;;;;;9.26;54.03;101158.31;5069668;28;20371;-70
2022/04/09 09:58:16;;;;;;;;;;;;;;;9.33;55.82;101161.41;5068762;28;20029;-70
2022/04/09 10:00:45;;;;;;;4.75;1.27;;;;;;;9.35;54.08;101168.22;5068697;28;20295;-70
2022/04/09 10:03:13;;;;;;;5.53;1.42;;;;;;;9.41;52.97;101161.75;5067908;28;20032;-70
2022/04/09 10:05:39;;;;;;;7.00;1.70;;;;;;;9.41;51.93;101167.00;5064529;28;20472;-69
2022/04/09 10:08:05;;;;;;;4.43;1.38;;;;;;;9.41;50.53;101161.75;5066576;28;20116;-69
2022/04/09 10:10:35;;;;;;;5.15;1.50;;;;;;;9.42;50.20;101166.91;5055862;28;20364;-69
2022/04/09 10:13:07;;;;;;;3.67;1.42;;;;;;;9.39;50.45;101167.09;5057004;28;20024;-69
2022/04/09 10:15:33;;;;;;;7.82;1.40;;;;;;;9.30;49.22;101167.69;5052623;28;20167;-69
2022/04/09 10:18:00;;;;;;;4.40;1.42;;;;;;;9.33;50.65;101170.13;5054195;28;20064;-69
2022/04/09 10:20:28;;;;;;;5.32;1.20;;;;;;;9.41;50.14;101178.34;5050851;28;20064;-69
2022/04/09 10:22:59;;;;;;;3.53;1.20;;;;;;;9.37;49.64;101171.59;5062062;28;20032;-69
2022/04/09 10:25:28;;;;;;;7.53;1.75;;;;;;;9.34;49.30;101176.22;5060082;28;20021;-69
2022/04/09 10:27:59;;;;;;;7.40;1.33;;;;;;;9.30;48.63;101180.81;5055737;28;20059;-69
2022/04/09 10:30:25;;;;;;;4.82;1.20;;;;;;;9.25;48.37;101182.88;5056908;28;20108;-71
2022/04/09 10:32:56;;;;;;;3.03;1.10;;;;;;;9.19;46.16;101182.41;5052786;28;20560;-70
2022/04/09 10:35:45;;;;;;;7.10;1.30;;;;;;;9.21;49.21;101185.81;5053679;28;20115;-70
2022/04/09 10:38:14;;;;;;;3.53;1.20;;;;;;;9.16;46.45;101179.97;5065312;28;20029;-69
2022/04/09 10:40:42;;;;;;;4.72;1.20;;;;;;;9.10;48.01;101191.72;5053419;28;20025;-69
2022/04/09 10:43:09;;;;;;;6.47;1.33;;;;;;;9.04;47.30;101190.31;5058143;28;20363;-70
2022/04/09 10:46:07;;;;;;;8.50;1.75;;;;;;;9.03;49.32;101188.63;5066615;28;20111;-69
2022/04/09 10:48:34;;;;;;;4.10;1.27;;;;;;;8.97;49.07;101188.16;5051875;28;20059;-69
2022/04/09 10:51:04;;;;;;;6.28;1.42;;;;;;;8.90;47.19;101181.63;5053897;28;20017;-70
2022/04/09 10:53:33;;;;;;;3.40;1.13;;;;;;;8.98;44.86;101198.56;5051375;28;20115;-69
2022/04/09 10:56:14;;;;;;;5.40;1.00;;;;;;;9.10;46.80;101189.09;5061074;28;20434;-69
2022/04/09 10:59:12;;;;;;;2.25;0.93;;;;;;;9.25;49.06;101188.16;5055112;28;20021;-69
2022/04/09 11:01:47;;;;;;;3.63;1.13;;;;;;;9.50;48.63;101187.41;5062650;28;20028;-69
2022/04/09 11:04:29;;;;;;;4.28;1.00;;;;;;;9.75;49.90;101184.06;5068074;28;20035;-69
2022/04/09 11:07:23;;;;;;;5.97;1.27;;;;;;;9.91;46.63;101187.34;5063485;28;20632;-69
2022/04/09 11:10:04;;;;;;;3.28;1.10;;;;;;;10.13;47.54;101162.28;5057352;28;20047;-69
2022/04/09 11:12:39;;;;;;;3.05;0.90;;;;;;;10.24;42.77;101183.47;5054088;28;20154;-72
2022/04/09 11:15:09;;;;;;;4.28;0.80;;;;;;;10.36;42.06;101190.53;5058075;28;20027;-71
2022/04/09 11:17:48;;;;;;;2.33;0.77;;;;;;;10.41;41.13;101191.09;5057125;28;20032;-69
2022/04/09 11:20:13;;;;;;;3.10;0.90;;;;;;;10.45;42.85;101181.19;5066765;28;20116;-69
2022/04/09 11:22:53;;;;;;;2.15;0.63;;;;;;;10.43;43.73;101194.44;5052259;28;20428;-69
2022/04/09 11:25:19;;;;;;;2.30;0.73;;;;;;;10.32;42.54;101191.69;5062963;28;20460;-69
2022/04/09 11:27:45;;;;;;;2.42;0.70;;;;;;;10.24;42.01;101188.72;5072777;28;20028;-69